PWSweather.com
Personal Weather Stations
Station Observations
HESKRFRR38
Schwerin, Germany, Klein RogahnDE 19073

Schwerin, GermanyKlein RogahnDE 19073

Lat: 53.6059537, Lon: 11.3412162

Elevation: 167.3226

Station Type: VantagePro2

Latest ConditionsUpdated 11:10:00 PM GMT+01:01 Saturday, Feb 23, 2019
Currently Today's Max Today's Min Today's Average
Temperature 32.6°F0.3°C 44.9°F7.2°C 25.8°F-3.4°C 34.1°F1.2°C
Dew Point 21.4°F-5.9°C 25.6°F-3.6°C 17.6°F-8.0°C 22.4°F-5.3°C
Winds 4.0 mph SSE6.4 kmh SSE 10.0 mph -16.1 kmh - - 4.1 mph 6.6 kmh
Wind Gusts 6.0 mph9.7 kmh 17.0 mph27.4 kmh - -
Humidity 63% 83% 34% 64%
Pressure 30.66 in1038.3 mb 30.80 in1043.0 mb 30.66 in1038.3 mb -
Hour Temp Dew Point Humidity Winds Wind Gusts Pressure Precip Precip Rate Daily Precip Total
11:10 PM 32.6°F0.3°C 21.4°F-5.9°C 63% 4.0 mph SSE6.4 kmh SSE 6.0 mph9.7 kmh 30.66 in1038.3 mb 0.00 in0.0 mm 0.00 in0.0 mm 0.00 in0.0 mm
11:05 PM 32.6°F0.3°C 21.4°F-5.9°C 63% 4.0 mph SSE6.4 kmh SSE 6.0 mph9.7 kmh 30.66 in1038.3 mb 0.00 in0.0 mm 0.00 in0.0 mm 0.00 in0.0 mm
11:00 PM 32.6°F0.3°C 21.4°F-5.9°C 63% 3.0 mph SSE4.8 kmh SSE 5.0 mph8.0 kmh 30.66 in1038.3 mb 0.00 in0.0 mm 0.00 in0.0 mm 0.00 in0.0 mm
10:55 PM 32.6°F0.3°C 21.4°F-5.9°C 63% 3.0 mph SSE4.8 kmh SSE 5.0 mph8.0 kmh 30.66 in1038.3 mb 0.00 in0.0 mm 0.00 in0.0 mm 0.00 in0.0 mm
10:50 PM 32.7°F0.4°C 21.1°F-6.1°C 62% 3.0 mph SSE4.8 kmh SSE 5.0 mph8.0 kmh 30.66 in1038.3 mb 0.00 in0.0 mm 0.00 in0.0 mm 0.00 in0.0 mm
10:45 PM 32.7°F0.4°C 21.1°F-6.1°C 62% 3.0 mph SSE4.8 kmh SSE 5.0 mph8.0 kmh 30.66 in1038.3 mb 0.00 in0.0 mm 0.00 in0.0 mm 0.00 in0.0 mm
10:40 PM 32.8°F0.4°C 21.2°F-6.0°C 62% 3.0 mph SSE4.8 kmh SSE 5.0 mph8.0 kmh 30.67 in1038.6 mb 0.00 in0.0 mm 0.00 in0.0 mm 0.00 in0.0 mm
10:35 PM 32.8°F0.4°C 21.2°F-6.0°C 62% 3.0 mph SSE4.8 kmh SSE 5.0 mph8.0 kmh 30.67 in1038.6 mb 0.00 in0.0 mm 0.00 in0.0 mm 0.00 in0.0 mm
10:30 PM 33.1°F0.6°C 21.5°F-5.8°C 62% 3.0 mph SSE4.8 kmh SSE 5.0 mph8.0 kmh 30.67 in1038.6 mb 0.00 in0.0 mm 0.00 in0.0 mm 0.00 in0.0 mm
10:25 PM 33.3°F0.7°C 21.3°F-5.9°C 61% 3.0 mph SSE4.8 kmh SSE 6.0 mph9.7 kmh 30.67 in1038.6 mb 0.00 in0.0 mm 0.00 in0.0 mm 0.00 in0.0 mm
10:20 PM 33.3°F0.7°C 21.7°F-5.7°C 62% 2.0 mph SSE3.2 kmh SSE 5.0 mph8.0 kmh 30.67 in1038.6 mb 0.00 in0.0 mm 0.00 in0.0 mm 0.00 in0.0 mm
10:15 PM 33.3°F0.7°C 21.7°F-5.7°C 62% 2.0 mph SSE3.2 kmh SSE 3.0 mph4.8 kmh 30.67 in1038.6 mb 0.00 in0.0 mm 0.00 in0.0 mm 0.00 in0.0 mm
10:10 PM 33.4°F0.8°C 21.8°F-5.7°C 62% 2.0 mph SSE3.2 kmh SSE 3.0 mph4.8 kmh 30.67 in1038.6 mb 0.00 in0.0 mm 0.00 in0.0 mm 0.00 in0.0 mm
10:05 PM 33.6°F0.9°C 21.6°F-5.8°C 61% 2.0 mph SSE3.2 kmh SSE 3.0 mph4.8 kmh 30.67 in1038.6 mb 0.00 in0.0 mm 0.00 in0.0 mm 0.00 in0.0 mm
10:00 PM 33.6°F0.9°C 21.6°F-5.8°C 61% 2.0 mph SSE3.2 kmh SSE 3.0 mph4.8 kmh 30.67 in1038.6 mb 0.00 in0.0 mm 0.00 in0.0 mm 0.00 in0.0 mm
09:55 PM 33.7°F0.9°C 21.7°F-5.7°C 61% 2.0 mph SSE3.2 kmh SSE 3.0 mph4.8 kmh 30.67 in1038.6 mb 0.00 in0.0 mm 0.00 in0.0 mm 0.00 in0.0 mm
09:50 PM 33.8°F1.0°C 21.4°F-5.9°C 60% 2.0 mph SSE3.2 kmh SSE 3.0 mph4.8 kmh 30.67 in1038.6 mb 0.00 in0.0 mm 0.00 in0.0 mm 0.00 in0.0 mm
09:45 PM 33.8°F1.0°C 21.4°F-5.9°C 60% 2.0 mph SSE3.2 kmh SSE 3.0 mph4.8 kmh 30.66 in1038.3 mb 0.00 in0.0 mm 0.00 in0.0 mm 0.00 in0.0 mm
09:40 PM 33.8°F1.0°C 21.4°F-5.9°C 60% 2.0 mph SSE3.2 kmh SSE 3.0 mph4.8 kmh 30.67 in1038.6 mb 0.00 in0.0 mm 0.00 in0.0 mm 0.00 in0.0 mm
09:35 PM 33.9°F1.1°C 21.5°F-5.8°C 60% 2.0 mph SSE3.2 kmh SSE 5.0 mph8.0 kmh 30.66 in1038.3 mb 0.00 in0.0 mm 0.00 in0.0 mm 0.00 in0.0 mm
09:30 PM 33.8°F1.0°C 21.8°F-5.7°C 61% 2.0 mph SSE3.2 kmh SSE 5.0 mph8.0 kmh 30.67 in1038.6 mb 0.00 in0.0 mm 0.00 in0.0 mm 0.00 in0.0 mm
09:25 PM 33.7°F0.9°C 21.7°F-5.7°C 61% 2.0 mph SSE3.2 kmh SSE 5.0 mph8.0 kmh 30.67 in1038.6 mb 0.00 in0.0 mm 0.00 in0.0 mm 0.00 in0.0 mm
09:20 PM 33.7°F0.9°C 21.7°F-5.7°C 61% 2.0 mph SSE3.2 kmh SSE 3.0 mph4.8 kmh 30.67 in1038.6 mb 0.00 in0.0 mm 0.00 in0.0 mm 0.00 in0.0 mm
09:15 PM 34.0°F1.1°C 21.6°F-5.8°C 60% 2.0 mph SSE3.2 kmh SSE 5.0 mph8.0 kmh 30.67 in1038.6 mb 0.00 in0.0 mm 0.00 in0.0 mm 0.00 in0.0 mm
09:10 PM 34.1°F1.2°C 21.7°F-5.7°C 60% 2.0 mph SSE3.2 kmh SSE 5.0 mph8.0 kmh 30.67 in1038.6 mb 0.00 in0.0 mm 0.00 in0.0 mm 0.00 in0.0 mm
09:05 PM 34.0°F1.1°C 21.6°F-5.8°C 60% 2.0 mph SSE3.2 kmh SSE 3.0 mph4.8 kmh 30.67 in1038.6 mb 0.00 in0.0 mm 0.00 in0.0 mm 0.00 in0.0 mm
09:00 PM 34.0°F1.1°C 22.0°F-5.6°C 61% 2.0 mph SSE3.2 kmh SSE 3.0 mph4.8 kmh 30.67 in1038.6 mb 0.00 in0.0 mm 0.00 in0.0 mm 0.00 in0.0 mm
08:55 PM 33.9°F1.1°C 21.9°F-5.6°C 61% 2.0 mph SSE3.2 kmh SSE 5.0 mph8.0 kmh 30.67 in1038.6 mb 0.00 in0.0 mm 0.00 in0.0 mm 0.00 in0.0 mm
08:50 PM 33.8°F1.0°C 21.8°F-5.7°C 61% 2.0 mph SSE3.2 kmh SSE 3.0 mph4.8 kmh 30.67 in1038.6 mb 0.00 in0.0 mm 0.00 in0.0 mm 0.00 in0.0 mm
08:45 PM 33.7°F0.9°C 21.7°F-5.7°C 61% 2.0 mph SSE3.2 kmh SSE 3.0 mph4.8 kmh 30.67 in1038.6 mb 0.00 in0.0 mm 0.00 in0.0 mm 0.00 in0.0 mm
08:40 PM 33.7°F0.9°C 21.7°F-5.7°C 61% 1.0 mph SSE1.6 kmh SSE 3.0 mph4.8 kmh 30.67 in1038.6 mb 0.00 in0.0 mm 0.00 in0.0 mm 0.00 in0.0 mm
08:35 PM 33.9°F1.1°C 21.5°F-5.8°C 60% Calm Calm 1.0 mph1.6 kmh 30.67 in1038.6 mb 0.00 in0.0 mm 0.00 in0.0 mm 0.00 in0.0 mm
08:30 PM 34.1°F1.2°C 21.7°F-5.7°C 60% 1.0 mph SSE1.6 kmh SSE 3.0 mph4.8 kmh 30.67 in1038.6 mb 0.00 in0.0 mm 0.00 in0.0 mm 0.00 in0.0 mm
08:25 PM 34.2°F1.2°C 21.4°F-5.9°C 59% 2.0 mph SSE3.2 kmh SSE 3.0 mph4.8 kmh 30.67 in1038.6 mb 0.00 in0.0 mm 0.00 in0.0 mm 0.00 in0.0 mm
08:20 PM 34.3°F1.3°C 21.5°F-5.8°C 59% 3.0 mph SSE4.8 kmh SSE 5.0 mph8.0 kmh 30.67 in1038.6 mb 0.00 in0.0 mm 0.00 in0.0 mm 0.00 in0.0 mm
08:15 PM 34.4°F1.3°C 21.6°F-5.8°C 59% 2.0 mph SSE3.2 kmh SSE 5.0 mph8.0 kmh 30.68 in1038.9 mb 0.00 in0.0 mm 0.00 in0.0 mm 0.00 in0.0 mm
08:10 PM 34.6°F1.4°C 21.8°F-5.7°C 59% 3.0 mph SSE4.8 kmh SSE 6.0 mph9.7 kmh 30.68 in1038.9 mb 0.00 in0.0 mm 0.00 in0.0 mm 0.00 in0.0 mm
08:05 PM 34.5°F1.4°C 21.7°F-5.7°C 59% 4.0 mph SSE6.4 kmh SSE 6.0 mph9.7 kmh 30.68 in1038.9 mb 0.00 in0.0 mm 0.00 in0.0 mm 0.00 in0.0 mm
08:00 PM 34.4°F1.3°C 21.6°F-5.8°C 59% 3.0 mph SSE4.8 kmh SSE 5.0 mph8.0 kmh 30.68 in1038.9 mb 0.00 in0.0 mm 0.00 in0.0 mm 0.00 in0.0 mm
07:55 PM 34.4°F1.3°C 21.6°F-5.8°C 59% 3.0 mph SSE4.8 kmh SSE 5.0 mph8.0 kmh 30.68 in1038.9 mb 0.00 in0.0 mm 0.00 in0.0 mm 0.00 in0.0 mm
07:50 PM 34.4°F1.3°C 22.0°F-5.6°C 60% 3.0 mph SSE4.8 kmh SSE 4.0 mph6.4 kmh 30.68 in1038.9 mb 0.00 in0.0 mm 0.00 in0.0 mm 0.00 in0.0 mm
07:45 PM 34.7°F1.5°C 21.9°F-5.6°C 59% 3.0 mph SSE4.8 kmh SSE 5.0 mph8.0 kmh 30.68 in1038.9 mb 0.00 in0.0 mm 0.00 in0.0 mm 0.00 in0.0 mm
07:40 PM 34.9°F1.6°C 22.0°F-5.6°C 59% 3.0 mph SSE4.8 kmh SSE 5.0 mph8.0 kmh 30.68 in1038.9 mb 0.00 in0.0 mm 0.00 in0.0 mm 0.00 in0.0 mm
07:35 PM 35.1°F1.7°C 21.8°F-5.7°C 58% 3.0 mph SSE4.8 kmh SSE 5.0 mph8.0 kmh 30.68 in1038.9 mb 0.00 in0.0 mm 0.00 in0.0 mm 0.00 in0.0 mm
07:30 PM 35.4°F1.9°C 21.7°F-5.7°C 57% 3.0 mph SSE4.8 kmh SSE 7.0 mph11.3 kmh 30.67 in1038.6 mb 0.00 in0.0 mm 0.00 in0.0 mm 0.00 in0.0 mm
07:25 PM 35.8°F2.1°C 21.7°F-5.7°C 56% 4.0 mph SSE6.4 kmh SSE 7.0 mph11.3 kmh 30.67 in1038.6 mb 0.00 in0.0 mm 0.00 in0.0 mm 0.00 in0.0 mm
07:20 PM 35.9°F2.2°C 21.8°F-5.7°C 56% 4.0 mph SSE6.4 kmh SSE 5.0 mph8.0 kmh 30.67 in1038.6 mb 0.00 in0.0 mm 0.00 in0.0 mm 0.00 in0.0 mm
07:15 PM 35.9°F2.2°C 21.8°F-5.7°C 56% 4.0 mph SSE6.4 kmh SSE 5.0 mph8.0 kmh 30.68 in1038.9 mb 0.00 in0.0 mm 0.00 in0.0 mm 0.00 in0.0 mm
07:10 PM 35.9°F2.2°C 22.2°F-5.4°C 57% 2.0 mph SSE3.2 kmh SSE 3.0 mph4.8 kmh 30.68 in1038.9 mb 0.00 in0.0 mm 0.00 in0.0 mm 0.00 in0.0 mm
07:05 PM 36.1°F2.3°C 22.4°F-5.3°C 57% 2.0 mph SE3.2 kmh SE 3.0 mph4.8 kmh 30.68 in1038.9 mb 0.00 in0.0 mm 0.00 in0.0 mm 0.00 in0.0 mm
07:00 PM 36.2°F2.3°C 22.5°F-5.3°C 57% 2.0 mph SE3.2 kmh SE 4.0 mph6.4 kmh 30.68 in1038.9 mb 0.00 in0.0 mm 0.00 in0.0 mm 0.00 in0.0 mm
06:55 PM 36.2°F2.3°C 22.5°F-5.3°C 57% 2.0 mph SE3.2 kmh SE 4.0 mph6.4 kmh 30.68 in1038.9 mb 0.00 in0.0 mm 0.00 in0.0 mm 0.00 in0.0 mm
06:50 PM 36.2°F2.3°C 22.5°F-5.3°C 57% 2.0 mph SE3.2 kmh SE 3.0 mph4.8 kmh 30.68 in1038.9 mb 0.00 in0.0 mm 0.00 in0.0 mm 0.00 in0.0 mm
06:45 PM 35.9°F2.2°C 22.6°F-5.2°C 58% 1.0 mph SE1.6 kmh SE 3.0 mph4.8 kmh 30.68 in1038.9 mb 0.00 in0.0 mm 0.00 in0.0 mm 0.00 in0.0 mm
06:40 PM 35.9°F2.2°C 22.2°F-5.4°C 57% 1.0 mph SE1.6 kmh SE 3.0 mph4.8 kmh 30.68 in1038.9 mb 0.00 in0.0 mm 0.00 in0.0 mm 0.00 in0.0 mm
06:35 PM 36.3°F2.4°C 22.1°F-5.5°C 56% 2.0 mph SE3.2 kmh SE 4.0 mph6.4 kmh 30.68 in1038.9 mb 0.00 in0.0 mm 0.00 in0.0 mm 0.00 in0.0 mm
06:30 PM 37.2°F2.9°C 22.1°F-5.5°C 54% 3.0 mph SE4.8 kmh SE 4.0 mph6.4 kmh 30.68 in1038.9 mb 0.00 in0.0 mm 0.00 in0.0 mm 0.00 in0.0 mm
06:25 PM 37.9°F3.3°C 22.3°F-5.4°C 53% 3.0 mph SE4.8 kmh SE 5.0 mph8.0 kmh 30.68 in1038.9 mb 0.00 in0.0 mm 0.00 in0.0 mm 0.00 in0.0 mm
06:20 PM 38.2°F3.4°C 22.1°F-5.5°C 52% 4.0 mph SE6.4 kmh SE 7.0 mph11.3 kmh 30.68 in1038.9 mb 0.00 in0.0 mm 0.00 in0.0 mm 0.00 in0.0 mm
06:15 PM 38.4°F3.6°C 22.3°F-5.4°C 52% 4.0 mph SE6.4 kmh SE 7.0 mph11.3 kmh 30.68 in1038.9 mb 0.00 in0.0 mm 0.00 in0.0 mm 0.00 in0.0 mm
06:10 PM 38.7°F3.7°C 22.1°F-5.5°C 51% 4.0 mph SE6.4 kmh SE 7.0 mph11.3 kmh 30.68 in1038.9 mb 0.00 in0.0 mm 0.00 in0.0 mm 0.00 in0.0 mm
06:05 PM 38.8°F3.8°C 22.2°F-5.4°C 51% 3.0 mph SE4.8 kmh SE 7.0 mph11.3 kmh 30.68 in1038.9 mb 0.00 in0.0 mm 0.00 in0.0 mm 0.00 in0.0 mm
06:00 PM 38.9°F3.8°C 22.3°F-5.4°C 51% 3.0 mph ESE4.8 kmh ESE 7.0 mph11.3 kmh 30.68 in1038.9 mb 0.00 in0.0 mm 0.00 in0.0 mm 0.00 in0.0 mm
05:55 PM 39.2°F4.0°C 21.7°F-5.7°C 49% 3.0 mph SE4.8 kmh SE 7.0 mph11.3 kmh 30.68 in1038.9 mb 0.00 in0.0 mm 0.00 in0.0 mm 0.00 in0.0 mm
05:50 PM 39.3°F4.1°C 21.3°F-5.9°C 48% 4.0 mph SE6.4 kmh SE 7.0 mph11.3 kmh 30.68 in1038.9 mb 0.00 in0.0 mm 0.00 in0.0 mm 0.00 in0.0 mm
05:45 PM 39.2°F4.0°C 21.7°F-5.7°C 49% 3.0 mph SE4.8 kmh SE 5.0 mph8.0 kmh 30.68 in1038.9 mb 0.00 in0.0 mm 0.00 in0.0 mm 0.00 in0.0 mm
05:40 PM 39.1°F3.9°C 22.0°F-5.6°C 50% 3.0 mph SSE4.8 kmh SSE 5.0 mph8.0 kmh 30.68 in1038.9 mb 0.00 in0.0 mm 0.00 in0.0 mm 0.00 in0.0 mm
05:35 PM 39.2°F4.0°C 22.6°F-5.2°C 51% 3.0 mph SSE4.8 kmh SSE 5.0 mph8.0 kmh 30.68 in1038.9 mb 0.00 in0.0 mm 0.00 in0.0 mm 0.00 in0.0 mm
05:30 PM 39.4°F4.1°C 22.8°F-5.1°C 51% 2.0 mph S3.2 kmh S 4.0 mph6.4 kmh 30.67 in1038.6 mb 0.00 in0.0 mm 0.00 in0.0 mm 0.00 in0.0 mm
05:25 PM 39.5°F4.2°C 22.9°F-5.1°C 51% 3.0 mph S4.8 kmh S 4.0 mph6.4 kmh 30.67 in1038.6 mb 0.00 in0.0 mm 0.00 in0.0 mm 0.00 in0.0 mm
05:20 PM 39.9°F4.4°C 22.8°F-5.1°C 50% 2.0 mph S3.2 kmh S 4.0 mph6.4 kmh 30.67 in1038.6 mb 0.00 in0.0 mm 0.00 in0.0 mm 0.00 in0.0 mm
05:15 PM 40.3°F4.6°C 23.2°F-4.9°C 50% 2.0 mph S3.2 kmh S 4.0 mph6.4 kmh 30.67 in1038.6 mb 0.00 in0.0 mm 0.00 in0.0 mm 0.00 in0.0 mm
05:10 PM 40.4°F4.7°C 22.8°F-5.1°C 49% 2.0 mph S3.2 kmh S 4.0 mph6.4 kmh 30.68 in1038.9 mb 0.00 in0.0 mm 0.00 in0.0 mm 0.00 in0.0 mm
05:05 PM 41.3°F5.2°C 22.6°F-5.2°C 47% - N N -- 30.67 in1038.6 mb 0.00 in0.0 mm 0.00 in0.0 mm 0.00 in0.0 mm
05:00 PM 41.3°F5.2°C 22.6°F-5.2°C 47% 3.0 mph SSE4.8 kmh SSE 5.0 mph8.0 kmh 30.67 in1038.6 mb 0.00 in0.0 mm 0.00 in0.0 mm 0.00 in0.0 mm
04:55 PM 41.4°F5.2°C 22.7°F-5.2°C 47% 4.0 mph SSE6.4 kmh SSE 8.0 mph12.9 kmh 30.67 in1038.6 mb 0.00 in0.0 mm 0.00 in0.0 mm 0.00 in0.0 mm
04:50 PM 41.9°F5.5°C 22.6°F-5.2°C 46% 3.0 mph S4.8 kmh S 7.0 mph11.3 kmh 30.67 in1038.6 mb 0.00 in0.0 mm 0.00 in0.0 mm 0.00 in0.0 mm
04:45 PM 42.0°F5.6°C 21.7°F-5.7°C 44% 5.0 mph SSE8.0 kmh SSE 8.0 mph12.9 kmh 30.68 in1038.9 mb 0.00 in0.0 mm 0.00 in0.0 mm 0.00 in0.0 mm
04:40 PM 42.2°F5.7°C 21.3°F-5.9°C 43% 6.0 mph SSE9.7 kmh SSE 8.0 mph12.9 kmh 30.68 in1038.9 mb 0.00 in0.0 mm 0.00 in0.0 mm 0.00 in0.0 mm
04:35 PM 42.3°F5.7°C 22.0°F-5.6°C 44% 4.0 mph SE6.4 kmh SE 8.0 mph12.9 kmh 30.68 in1038.9 mb 0.00 in0.0 mm 0.00 in0.0 mm 0.00 in0.0 mm
04:30 PM 42.3°F5.7°C 22.0°F-5.6°C 44% 5.0 mph SE8.0 kmh SE 9.0 mph14.5 kmh 30.68 in1038.9 mb 0.00 in0.0 mm 0.00 in0.0 mm 0.00 in0.0 mm
04:25 PM 42.3°F5.7°C 23.0°F-5.0°C 46% 5.0 mph SSE8.0 kmh SSE 9.0 mph14.5 kmh 30.68 in1038.9 mb 0.00 in0.0 mm 0.00 in0.0 mm 0.00 in0.0 mm
04:20 PM 42.3°F5.7°C 23.5°F-4.7°C 47% 4.0 mph SSE6.4 kmh SSE 8.0 mph12.9 kmh 30.68 in1038.9 mb 0.00 in0.0 mm 0.00 in0.0 mm 0.00 in0.0 mm
04:15 PM 42.4°F5.8°C 23.1°F-4.9°C 46% 4.0 mph SSE6.4 kmh SSE 6.0 mph9.7 kmh 30.68 in1038.9 mb 0.00 in0.0 mm 0.00 in0.0 mm 0.00 in0.0 mm
04:10 PM 42.7°F5.9°C 23.4°F-4.8°C 46% 3.0 mph SSE4.8 kmh SSE 6.0 mph9.7 kmh 30.68 in1038.9 mb 0.00 in0.0 mm 0.00 in0.0 mm 0.00 in0.0 mm
04:05 PM 42.7°F5.9°C 22.9°F-5.1°C 45% 4.0 mph SSE6.4 kmh SSE 8.0 mph12.9 kmh 30.68 in1038.9 mb 0.00 in0.0 mm 0.00 in0.0 mm 0.00 in0.0 mm
04:00 PM 42.9°F6.1°C 22.0°F-5.6°C 43% 4.0 mph SSE6.4 kmh SSE 10.0 mph16.1 kmh 30.68 in1038.9 mb 0.00 in0.0 mm 0.00 in0.0 mm 0.00 in0.0 mm
03:55 PM 43.1°F6.2°C 22.1°F-5.5°C 43% 5.0 mph SSE8.0 kmh SSE 9.0 mph14.5 kmh 30.68 in1038.9 mb 0.00 in0.0 mm 0.00 in0.0 mm 0.00 in0.0 mm
03:50 PM 43.5°F6.4°C 21.4°F-5.9°C 41% 6.0 mph SSE9.7 kmh SSE 9.0 mph14.5 kmh 30.68 in1038.9 mb 0.00 in0.0 mm 0.00 in0.0 mm 0.00 in0.0 mm
03:45 PM 44.0°F6.7°C 22.4°F-5.3°C 42% 6.0 mph SSE9.7 kmh SSE 9.0 mph14.5 kmh 30.68 in1038.9 mb 0.00 in0.0 mm 0.00 in0.0 mm 0.00 in0.0 mm
03:40 PM 44.0°F6.7°C 22.4°F-5.3°C 42% 5.0 mph SSE8.0 kmh SSE 11.0 mph17.7 kmh 30.68 in1038.9 mb 0.00 in0.0 mm 0.00 in0.0 mm 0.00 in0.0 mm
03:35 PM -- -- - 6.0 mph SSE9.7 kmh SSE 11.0 mph17.7 kmh -- 0.00 in0.0 mm 0.00 in0.0 mm 0.00 in0.0 mm
03:30 PM 44.8°F7.1°C 20.8°F-6.2°C 38% 6.0 mph SSE9.7 kmh SSE 11.0 mph17.7 kmh 30.69 in1039.3 mb 0.00 in0.0 mm 0.00 in0.0 mm 0.00 in0.0 mm
03:25 PM 44.8°F7.1°C 21.4°F-5.9°C 39% 6.0 mph SSE9.7 kmh SSE 11.0 mph17.7 kmh 30.69 in1039.3 mb 0.00 in0.0 mm 0.00 in0.0 mm 0.00 in0.0 mm
03:20 PM 44.8°F7.1°C 20.1°F-6.6°C 37% 7.0 mph S11.3 kmh S 13.0 mph20.9 kmh 30.70 in1039.6 mb 0.00 in0.0 mm 0.00 in0.0 mm 0.00 in0.0 mm
03:15 PM 44.3°F6.8°C 20.3°F-6.5°C 38% 7.0 mph SE11.3 kmh SE 13.0 mph20.9 kmh 30.70 in1039.6 mb 0.00 in0.0 mm 0.00 in0.0 mm 0.00 in0.0 mm
03:10 PM 44.2°F6.8°C 17.6°F-8.0°C 34% 9.0 mph SSE14.5 kmh SSE 15.0 mph24.1 kmh 30.69 in1039.3 mb 0.00 in0.0 mm 0.00 in0.0 mm 0.00 in0.0 mm
03:05 PM 44.7°F7.1°C 21.3°F-5.9°C 39% 7.0 mph SSE11.3 kmh SSE 12.0 mph19.3 kmh 30.69 in1039.3 mb 0.00 in0.0 mm 0.00 in0.0 mm 0.00 in0.0 mm
03:00 PM 44.9°F7.2°C 21.5°F-5.8°C 39% 5.0 mph SSE8.0 kmh SSE 9.0 mph14.5 kmh 30.69 in1039.3 mb 0.00 in0.0 mm 0.00 in0.0 mm 0.00 in0.0 mm
02:55 PM 44.1°F6.7°C 19.5°F-6.9°C 37% 6.0 mph S9.7 kmh S 11.0 mph17.7 kmh 30.69 in1039.3 mb 0.00 in0.0 mm 0.00 in0.0 mm 0.00 in0.0 mm
02:50 PM 43.4°F6.3°C 20.1°F-6.6°C 39% 8.0 mph S12.9 kmh S 12.0 mph19.3 kmh 30.69 in1039.3 mb 0.00 in0.0 mm 0.00 in0.0 mm 0.00 in0.0 mm
02:45 PM 43.6°F6.4°C 19.1°F-7.2°C 37% 7.0 mph SSE11.3 kmh SSE 12.0 mph19.3 kmh 30.70 in1039.6 mb 0.00 in0.0 mm 0.00 in0.0 mm 0.00 in0.0 mm
02:40 PM 43.8°F6.6°C 19.2°F-7.1°C 37% 7.0 mph SSE11.3 kmh SSE 12.0 mph19.3 kmh 30.70 in1039.6 mb 0.00 in0.0 mm 0.00 in0.0 mm 0.00 in0.0 mm
02:35 PM 44.2°F6.8°C 21.4°F-5.9°C 40% 5.0 mph S8.0 kmh S 9.0 mph14.5 kmh 30.70 in1039.6 mb 0.00 in0.0 mm 0.00 in0.0 mm 0.00 in0.0 mm
02:30 PM 43.8°F6.6°C 19.2°F-7.1°C 37% 7.0 mph SSE11.3 kmh SSE 13.0 mph20.9 kmh 30.70 in1039.6 mb 0.00 in0.0 mm 0.00 in0.0 mm 0.00 in0.0 mm
02:25 PM 44.2°F6.8°C 22.6°F-5.2°C 42% 5.0 mph SSE8.0 kmh SSE 8.0 mph12.9 kmh 30.70 in1039.6 mb 0.00 in0.0 mm 0.00 in0.0 mm 0.00 in0.0 mm
02:20 PM 44.2°F6.8°C 21.4°F-5.9°C 40% 5.0 mph SSE8.0 kmh SSE 10.0 mph16.1 kmh 30.71 in1040.0 mb 0.00 in0.0 mm 0.00 in0.0 mm 0.00 in0.0 mm
02:15 PM 43.6°F6.4°C 20.9°F-6.2°C 40% 6.0 mph SSE9.7 kmh SSE 11.0 mph17.7 kmh 30.71 in1040.0 mb 0.00 in0.0 mm 0.00 in0.0 mm 0.00 in0.0 mm
02:10 PM 43.2°F6.2°C 19.9°F-6.7°C 39% 6.0 mph SSE9.7 kmh SSE 11.0 mph17.7 kmh 30.71 in1040.0 mb 0.00 in0.0 mm 0.00 in0.0 mm 0.00 in0.0 mm
02:05 PM 43.0°F6.1°C 20.3°F-6.5°C 40% 6.0 mph SE9.7 kmh SE 11.0 mph17.7 kmh 30.71 in1040.0 mb 0.00 in0.0 mm 0.00 in0.0 mm 0.00 in0.0 mm
02:00 PM 42.6°F5.9°C 21.7°F-5.7°C 43% 7.0 mph SSE11.3 kmh SSE 13.0 mph20.9 kmh 30.71 in1040.0 mb 0.00 in0.0 mm 0.00 in0.0 mm 0.00 in0.0 mm
01:55 PM 42.6°F5.9°C 22.2°F-5.4°C 44% 5.0 mph SSE8.0 kmh SSE 9.0 mph14.5 kmh 30.71 in1040.0 mb 0.00 in0.0 mm 0.00 in0.0 mm 0.00 in0.0 mm
01:50 PM 42.7°F5.9°C 22.3°F-5.4°C 44% 6.0 mph S9.7 kmh S 12.0 mph19.3 kmh 30.71 in1040.0 mb 0.00 in0.0 mm 0.00 in0.0 mm 0.00 in0.0 mm
01:45 PM 43.1°F6.2°C 23.2°F-4.9°C 45% 5.0 mph SSE8.0 kmh SSE 8.0 mph12.9 kmh 30.72 in1040.3 mb 0.00 in0.0 mm 0.00 in0.0 mm 0.00 in0.0 mm
01:40 PM 42.3°F5.7°C 23.0°F-5.0°C 46% 7.0 mph SSE11.3 kmh SSE 11.0 mph17.7 kmh 30.71 in1040.0 mb 0.00 in0.0 mm 0.00 in0.0 mm 0.00 in0.0 mm
01:35 PM 41.9°F5.5°C 23.2°F-4.9°C 47% 6.0 mph SSE9.7 kmh SSE 10.0 mph16.1 kmh 30.72 in1040.3 mb 0.00 in0.0 mm 0.00 in0.0 mm 0.00 in0.0 mm
01:30 PM 41.5°F5.3°C 22.8°F-5.1°C 47% 6.0 mph SE9.7 kmh SE 11.0 mph17.7 kmh 30.72 in1040.3 mb 0.00 in0.0 mm 0.00 in0.0 mm 0.00 in0.0 mm
01:25 PM 41.7°F5.4°C 23.0°F-5.0°C 47% 6.0 mph SSE9.7 kmh SSE 10.0 mph16.1 kmh 30.72 in1040.3 mb 0.00 in0.0 mm 0.00 in0.0 mm 0.00 in0.0 mm
01:20 PM 41.2°F5.1°C 23.0°F-5.0°C 48% 7.0 mph SSE11.3 kmh SSE 11.0 mph17.7 kmh 30.72 in1040.3 mb 0.00 in0.0 mm 0.00 in0.0 mm 0.00 in0.0 mm
01:15 PM 40.9°F4.9°C 22.7°F-5.2°C 48% 7.0 mph S11.3 kmh S 12.0 mph19.3 kmh 30.72 in1040.3 mb 0.00 in0.0 mm 0.00 in0.0 mm 0.00 in0.0 mm
01:10 PM 40.9°F4.9°C 23.7°F-4.6°C 50% 6.0 mph SSE9.7 kmh SSE 11.0 mph17.7 kmh 30.72 in1040.3 mb 0.00 in0.0 mm 0.00 in0.0 mm 0.00 in0.0 mm
01:05 PM 41.0°F5.0°C 24.7°F-4.1°C 52% 6.0 mph SSE9.7 kmh SSE 12.0 mph19.3 kmh 30.72 in1040.3 mb 0.00 in0.0 mm 0.00 in0.0 mm 0.00 in0.0 mm
01:00 PM 40.6°F4.8°C 24.4°F-4.2°C 52% 7.0 mph SSE11.3 kmh SSE 12.0 mph19.3 kmh 30.72 in1040.3 mb 0.00 in0.0 mm 0.00 in0.0 mm 0.00 in0.0 mm
12:55 PM 40.0°F4.4°C 23.8°F-4.6°C 52% 10.0 mph SSE16.1 kmh SSE 16.0 mph25.7 kmh 30.72 in1040.3 mb 0.00 in0.0 mm 0.00 in0.0 mm 0.00 in0.0 mm
12:50 PM 40.0°F4.4°C 22.9°F-5.1°C 50% 9.0 mph SSE14.5 kmh SSE 16.0 mph25.7 kmh 30.72 in1040.3 mb 0.00 in0.0 mm 0.00 in0.0 mm 0.00 in0.0 mm
12:45 PM 39.8°F4.3°C 23.6°F-4.7°C 52% 9.0 mph SSE14.5 kmh SSE 13.0 mph20.9 kmh 30.72 in1040.3 mb 0.00 in0.0 mm 0.00 in0.0 mm 0.00 in0.0 mm
12:40 PM 39.7°F4.3°C 22.6°F-5.2°C 50% 9.0 mph SSE14.5 kmh SSE 17.0 mph27.4 kmh 30.73 in1040.6 mb 0.00 in0.0 mm 0.00 in0.0 mm 0.00 in0.0 mm
12:35 PM 39.5°F4.2°C 22.9°F-5.1°C 51% 8.0 mph SSE12.9 kmh SSE 13.0 mph20.9 kmh 30.73 in1040.6 mb 0.00 in0.0 mm 0.00 in0.0 mm 0.00 in0.0 mm
12:30 PM 40.0°F4.4°C 23.8°F-4.6°C 52% 8.0 mph SSE12.9 kmh SSE 14.0 mph22.5 kmh 30.73 in1040.6 mb 0.00 in0.0 mm 0.00 in0.0 mm 0.00 in0.0 mm
12:25 PM 40.0°F4.4°C 23.8°F-4.6°C 52% 8.0 mph SSE12.9 kmh SSE 12.0 mph19.3 kmh 30.73 in1040.6 mb 0.00 in0.0 mm 0.00 in0.0 mm 0.00 in0.0 mm
12:20 PM 39.4°F4.1°C 24.6°F-4.1°C 55% 7.0 mph SSE11.3 kmh SSE 13.0 mph20.9 kmh 30.73 in1040.6 mb 0.00 in0.0 mm 0.00 in0.0 mm 0.00 in0.0 mm
12:15 PM 38.8°F3.8°C 23.6°F-4.7°C 54% 8.0 mph SSE12.9 kmh SSE 12.0 mph19.3 kmh 30.74 in1041.0 mb 0.00 in0.0 mm 0.00 in0.0 mm 0.00 in0.0 mm
12:10 PM 38.4°F3.6°C 24.5°F-4.2°C 57% 7.0 mph SSE11.3 kmh SSE 12.0 mph19.3 kmh 30.74 in1041.0 mb 0.00 in0.0 mm 0.00 in0.0 mm 0.00 in0.0 mm
12:05 PM 37.8°F3.2°C 24.8°F-4.0°C 59% 7.0 mph SSE11.3 kmh SSE 10.0 mph16.1 kmh 30.74 in1041.0 mb 0.00 in0.0 mm 0.00 in0.0 mm 0.00 in0.0 mm
12:00 PM 37.4°F3.0°C 23.6°F-4.7°C 57% - N N -- 30.74 in1041.0 mb 0.00 in0.0 mm 0.00 in0.0 mm 0.00 in0.0 mm
11:57 AM 37.4°F3.0°C 23.6°F-4.7°C 57% 8.0 mph SSE12.9 kmh SSE 13.0 mph20.9 kmh 30.74 in1041.0 mb 0.00 in0.0 mm 0.00 in0.0 mm 0.00 in0.0 mm
11:50 AM 37.4°F3.0°C 23.6°F-4.7°C 57% 9.0 mph SSE14.5 kmh SSE 15.0 mph24.1 kmh 30.74 in1041.0 mb 0.00 in0.0 mm 0.00 in0.0 mm 0.00 in0.0 mm
11:45 AM 37.5°F3.1°C 23.2°F-4.9°C 56% 6.0 mph SSE9.7 kmh SSE 9.0 mph14.5 kmh 30.74 in1041.0 mb 0.00 in0.0 mm 0.00 in0.0 mm 0.00 in0.0 mm
11:40 AM 37.1°F2.8°C 23.7°F-4.6°C 58% 8.0 mph SSE12.9 kmh SSE 13.0 mph20.9 kmh 30.74 in1041.0 mb 0.00 in0.0 mm 0.00 in0.0 mm 0.00 in0.0 mm
11:35 AM 37.1°F2.8°C 23.7°F-4.6°C 58% 8.0 mph S12.9 kmh S 13.0 mph20.9 kmh 30.74 in1041.0 mb 0.00 in0.0 mm 0.00 in0.0 mm 0.00 in0.0 mm
11:30 AM 37.1°F2.8°C 23.7°F-4.6°C 58% 7.0 mph S11.3 kmh S 13.0 mph20.9 kmh 30.74 in1041.0 mb 0.00 in0.0 mm 0.00 in0.0 mm 0.00 in0.0 mm
11:25 AM 37.3°F2.9°C 24.7°F-4.1°C 60% 6.0 mph S9.7 kmh S 12.0 mph19.3 kmh 30.75 in1041.3 mb 0.00 in0.0 mm 0.00 in0.0 mm 0.00 in0.0 mm
11:20 AM 36.7°F2.6°C 23.3°F-4.8°C 58% 9.0 mph SSE14.5 kmh SSE 13.0 mph20.9 kmh 30.75 in1041.3 mb 0.00 in0.0 mm 0.00 in0.0 mm 0.00 in0.0 mm
11:15 AM 36.6°F2.6°C 23.6°F-4.7°C 59% 8.0 mph SSE12.9 kmh SSE 14.0 mph22.5 kmh 30.75 in1041.3 mb 0.00 in0.0 mm 0.00 in0.0 mm 0.00 in0.0 mm
11:10 AM 36.5°F2.5°C 24.0°F-4.4°C 60% 8.0 mph SSE12.9 kmh SSE 12.0 mph19.3 kmh 30.75 in1041.3 mb 0.00 in0.0 mm 0.00 in0.0 mm 0.00 in0.0 mm
11:05 AM 36.4°F2.4°C 24.6°F-4.1°C 62% 7.0 mph SSE11.3 kmh SSE 12.0 mph19.3 kmh 30.75 in1041.3 mb 0.00 in0.0 mm 0.00 in0.0 mm 0.00 in0.0 mm
11:00 AM 36.0°F2.2°C 24.6°F-4.1°C 63% 7.0 mph S11.3 kmh S 14.0 mph22.5 kmh 30.75 in1041.3 mb 0.00 in0.0 mm 0.00 in0.0 mm 0.00 in0.0 mm
10:55 AM 35.8°F2.1°C 25.6°F-3.6°C 66% 7.0 mph SSE11.3 kmh SSE 11.0 mph17.7 kmh 30.75 in1041.3 mb 0.00 in0.0 mm 0.00 in0.0 mm 0.00 in0.0 mm
10:50 AM 35.5°F1.9°C 25.6°F-3.6°C 67% 6.0 mph S9.7 kmh S 11.0 mph17.7 kmh 30.75 in1041.3 mb 0.00 in0.0 mm 0.00 in0.0 mm 0.00 in0.0 mm
10:45 AM 35.5°F1.9°C 25.3°F-3.7°C 66% 7.0 mph SSE11.3 kmh SSE 13.0 mph20.9 kmh 30.75 in1041.3 mb 0.00 in0.0 mm 0.00 in0.0 mm 0.00 in0.0 mm
10:40 AM 34.8°F1.6°C 24.6°F-4.1°C 66% 8.0 mph SSE12.9 kmh SSE 12.0 mph19.3 kmh 30.75 in1041.3 mb 0.00 in0.0 mm 0.00 in0.0 mm 0.00 in0.0 mm
10:35 AM 34.4°F1.3°C 24.6°F-4.1°C 67% 8.0 mph SSE12.9 kmh SSE 13.0 mph20.9 kmh 30.75 in1041.3 mb 0.00 in0.0 mm 0.00 in0.0 mm 0.00 in0.0 mm
10:30 AM 34.0°F1.1°C 24.6°F-4.1°C 68% 7.0 mph SSE11.3 kmh SSE 10.0 mph16.1 kmh 30.75 in1041.3 mb 0.00 in0.0 mm 0.00 in0.0 mm 0.00 in0.0 mm
10:25 AM 33.8°F1.0°C 24.4°F-4.2°C 68% 9.0 mph SSE14.5 kmh SSE 13.0 mph20.9 kmh 30.75 in1041.3 mb 0.00 in0.0 mm 0.00 in0.0 mm 0.00 in0.0 mm
10:20 AM 33.7°F0.9°C 24.6°F-4.1°C 69% 7.0 mph SSE11.3 kmh SSE 9.0 mph14.5 kmh 30.74 in1041.0 mb 0.00 in0.0 mm 0.00 in0.0 mm 0.00 in0.0 mm
10:15 AM 33.7°F0.9°C 24.6°F-4.1°C 69% 9.0 mph SE14.5 kmh SE 14.0 mph22.5 kmh 30.75 in1041.3 mb 0.00 in0.0 mm 0.00 in0.0 mm 0.00 in0.0 mm
10:10 AM 33.5°F0.8°C 24.4°F-4.2°C 69% 9.0 mph SSE14.5 kmh SSE 13.0 mph20.9 kmh 30.75 in1041.3 mb 0.00 in0.0 mm 0.00 in0.0 mm 0.00 in0.0 mm
10:05 AM 33.4°F0.8°C 24.7°F-4.1°C 70% 8.0 mph SSE12.9 kmh SSE 11.0 mph17.7 kmh 30.75 in1041.3 mb 0.00 in0.0 mm 0.00 in0.0 mm 0.00 in0.0 mm
10:00 AM 33.2°F0.7°C 24.8°F-4.0°C 71% 8.0 mph SE12.9 kmh SE 13.0 mph20.9 kmh 30.75 in1041.3 mb 0.00 in0.0 mm 0.00 in0.0 mm 0.00 in0.0 mm
09:55 AM 32.8°F0.4°C 24.4°F-4.2°C 71% 8.0 mph SSE12.9 kmh SSE 13.0 mph20.9 kmh 30.76 in1041.7 mb 0.00 in0.0 mm 0.00 in0.0 mm 0.00 in0.0 mm
09:50 AM 32.2°F0.1°C 24.2°F-4.3°C 72% 7.0 mph SSE11.3 kmh SSE 12.0 mph19.3 kmh 30.76 in1041.7 mb 0.00 in0.0 mm 0.00 in0.0 mm 0.00 in0.0 mm
09:45 AM 32.0°F0.0°C 24.0°F-4.4°C 72% 7.0 mph SSE11.3 kmh SSE 12.0 mph19.3 kmh 30.76 in1041.7 mb 0.00 in0.0 mm 0.00 in0.0 mm 0.00 in0.0 mm
09:40 AM 31.9°F-0.1°C 23.6°F-4.7°C 71% 8.0 mph SSE12.9 kmh SSE 12.0 mph19.3 kmh 30.76 in1041.7 mb 0.00 in0.0 mm 0.00 in0.0 mm 0.00 in0.0 mm
09:35 AM 32.1°F0.1°C 24.1°F-4.4°C 72% 7.0 mph SSE11.3 kmh SSE 11.0 mph17.7 kmh 30.77 in1042.0 mb 0.00 in0.0 mm 0.00 in0.0 mm 0.00 in0.0 mm
09:30 AM 32.0°F0.0°C 23.7°F-4.6°C 71% 8.0 mph SSE12.9 kmh SSE 14.0 mph22.5 kmh 30.77 in1042.0 mb 0.00 in0.0 mm 0.00 in0.0 mm 0.00 in0.0 mm
09:20 AM 31.7°F-0.2°C 24.1°F-4.4°C 73% 6.0 mph SE9.7 kmh SE 9.0 mph14.5 kmh 30.76 in1041.7 mb 0.00 in0.0 mm 0.00 in0.0 mm 0.00 in0.0 mm
09:15 AM 31.4°F-0.3°C 23.8°F-4.6°C 73% 6.0 mph SE9.7 kmh SE 10.0 mph16.1 kmh 30.77 in1042.0 mb 0.00 in0.0 mm 0.00 in0.0 mm 0.00 in0.0 mm
09:10 AM 31.2°F-0.4°C 23.9°F-4.5°C 74% 6.0 mph SE9.7 kmh SE 10.0 mph16.1 kmh 30.77 in1042.0 mb 0.00 in0.0 mm 0.00 in0.0 mm 0.00 in0.0 mm
09:05 AM 30.8°F-0.7°C 23.5°F-4.7°C 74% 6.0 mph SE9.7 kmh SE 10.0 mph16.1 kmh 30.77 in1042.0 mb 0.00 in0.0 mm 0.00 in0.0 mm 0.00 in0.0 mm
09:00 AM 30.5°F-0.8°C 23.9°F-4.5°C 76% 5.0 mph SE8.0 kmh SE 8.0 mph12.9 kmh 30.77 in1042.0 mb 0.00 in0.0 mm 0.00 in0.0 mm 0.00 in0.0 mm
08:55 AM 29.9°F-1.2°C 23.6°F-4.7°C 77% 4.0 mph SSE6.4 kmh SSE 6.0 mph9.7 kmh 30.77 in1042.0 mb 0.00 in0.0 mm 0.00 in0.0 mm 0.00 in0.0 mm
08:50 AM 29.4°F-1.4°C 23.4°F-4.8°C 78% 3.0 mph SE4.8 kmh SE 7.0 mph11.3 kmh 30.77 in1042.0 mb 0.00 in0.0 mm 0.00 in0.0 mm 0.00 in0.0 mm
08:45 AM 29.0°F-1.7°C 23.0°F-5.0°C 78% 4.0 mph SE6.4 kmh SE 7.0 mph11.3 kmh 30.77 in1042.0 mb 0.00 in0.0 mm 0.00 in0.0 mm 0.00 in0.0 mm
08:40 AM 28.6°F-1.9°C 22.9°F-5.1°C 79% 1.0 mph SE1.6 kmh SE 5.0 mph8.0 kmh 30.77 in1042.0 mb 0.00 in0.0 mm 0.00 in0.0 mm 0.00 in0.0 mm
08:35 AM 28.2°F-2.1°C 22.5°F-5.3°C 79% Calm Calm -- 30.77 in1042.0 mb 0.00 in0.0 mm 0.00 in0.0 mm 0.00 in0.0 mm
08:30 AM 27.9°F-2.3°C 22.2°F-5.4°C 79% 2.0 mph SE3.2 kmh SE 4.0 mph6.4 kmh 30.77 in1042.0 mb 0.00 in0.0 mm 0.00 in0.0 mm 0.00 in0.0 mm
08:25 AM 27.6°F-2.4°C 22.0°F-5.6°C 79% 3.0 mph SE4.8 kmh SE 4.0 mph6.4 kmh 30.77 in1042.0 mb 0.00 in0.0 mm 0.00 in0.0 mm 0.00 in0.0 mm
08:20 AM 27.4°F-2.6°C 22.1°F-5.5°C 80% 2.0 mph SE3.2 kmh SE 4.0 mph6.4 kmh 30.77 in1042.0 mb 0.00 in0.0 mm 0.00 in0.0 mm 0.00 in0.0 mm
08:15 AM 27.1°F-2.7°C 22.1°F-5.5°C 81% 1.0 mph SE1.6 kmh SE 3.0 mph4.8 kmh 30.77 in1042.0 mb 0.00 in0.0 mm 0.00 in0.0 mm 0.00 in0.0 mm
08:10 AM 26.9°F-2.8°C 21.9°F-5.6°C 81% Calm Calm -- 30.77 in1042.0 mb 0.00 in0.0 mm 0.00 in0.0 mm 0.00 in0.0 mm
08:05 AM 27.0°F-2.8°C 21.7°F-5.7°C 80% Calm Calm 2.0 mph3.2 kmh 30.77 in1042.0 mb 0.00 in0.0 mm 0.00 in0.0 mm 0.00 in0.0 mm
08:00 AM 27.1°F-2.7°C 21.8°F-5.7°C 80% 1.0 mph SE1.6 kmh SE 3.0 mph4.8 kmh 30.77 in1042.0 mb 0.00 in0.0 mm 0.00 in0.0 mm 0.00 in0.0 mm
07:55 AM 26.8°F-2.9°C 21.8°F-5.7°C 81% 3.0 mph SE4.8 kmh SE 4.0 mph6.4 kmh 30.77 in1042.0 mb 0.00 in0.0 mm 0.00 in0.0 mm 0.00 in0.0 mm
07:50 AM 26.2°F-3.2°C 21.8°F-5.7°C 83% 2.0 mph SE3.2 kmh SE 4.0 mph6.4 kmh 30.77 in1042.0 mb 0.00 in0.0 mm 0.00 in0.0 mm 0.00 in0.0 mm
07:45 AM 25.8°F-3.4°C 21.1°F-6.1°C 82% Calm Calm 2.0 mph3.2 kmh 30.78 in1042.3 mb 0.00 in0.0 mm 0.00 in0.0 mm 0.00 in0.0 mm
07:40 AM 26.5°F-3.1°C 21.2°F-6.0°C 80% 2.0 mph SE3.2 kmh SE 4.0 mph6.4 kmh 30.78 in1042.3 mb 0.00 in0.0 mm 0.00 in0.0 mm 0.00 in0.0 mm
07:35 AM 26.3°F-3.2°C 21.3°F-5.9°C 81% 2.0 mph SE3.2 kmh SE 3.0 mph4.8 kmh 30.78 in1042.3 mb 0.00 in0.0 mm 0.00 in0.0 mm 0.00 in0.0 mm
07:30 AM 26.2°F-3.2°C 21.2°F-6.0°C 81% 2.0 mph SE3.2 kmh SE 6.0 mph9.7 kmh 30.77 in1042.0 mb 0.00 in0.0 mm 0.00 in0.0 mm 0.00 in0.0 mm
07:25 AM 25.9°F-3.4°C 20.9°F-6.2°C 81% 2.0 mph SE3.2 kmh SE 4.0 mph6.4 kmh 30.77 in1042.0 mb 0.00 in0.0 mm 0.00 in0.0 mm 0.00 in0.0 mm
07:20 AM 26.0°F-3.3°C 21.0°F-6.1°C 81% 2.0 mph SE3.2 kmh SE 4.0 mph6.4 kmh 30.77 in1042.0 mb 0.00 in0.0 mm 0.00 in0.0 mm 0.00 in0.0 mm
07:15 AM 26.0°F-3.3°C 20.7°F-6.3°C 80% 1.0 mph SE1.6 kmh SE 3.0 mph4.8 kmh 30.77 in1042.0 mb 0.00 in0.0 mm 0.00 in0.0 mm 0.00 in0.0 mm
07:10 AM 26.1°F-3.3°C 20.8°F-6.2°C 80% 2.0 mph SE3.2 kmh SE 3.0 mph4.8 kmh 30.77 in1042.0 mb 0.00 in0.0 mm 0.00 in0.0 mm 0.00 in0.0 mm
07:05 AM 26.1°F-3.3°C 20.8°F-6.2°C 80% 1.0 mph SE1.6 kmh SE 4.0 mph6.4 kmh 30.77 in1042.0 mb 0.00 in0.0 mm 0.00 in0.0 mm 0.00 in0.0 mm
07:00 AM 25.9°F-3.4°C 20.6°F-6.3°C 80% Calm Calm -- 30.77 in1042.0 mb 0.00 in0.0 mm 0.00 in0.0 mm 0.00 in0.0 mm
06:55 AM 26.0°F-3.3°C 20.4°F-6.4°C 79% 1.0 mph SE1.6 kmh SE 3.0 mph4.8 kmh 30.77 in1042.0 mb 0.00 in0.0 mm 0.00 in0.0 mm 0.00 in0.0 mm
06:50 AM 26.3°F-3.2°C 20.7°F-6.3°C 79% 3.0 mph SE4.8 kmh SE 4.0 mph6.4 kmh 30.77 in1042.0 mb 0.00 in0.0 mm 0.00 in0.0 mm 0.00 in0.0 mm
06:45 AM 26.9°F-2.8°C 21.0°F-6.1°C 78% 2.0 mph SE3.2 kmh SE 4.0 mph6.4 kmh 30.77 in1042.0 mb 0.00 in0.0 mm 0.00 in0.0 mm 0.00 in0.0 mm
06:40 AM 27.3°F-2.6°C 21.1°F-6.1°C 77% 3.0 mph SE4.8 kmh SE 7.0 mph11.3 kmh 30.77 in1042.0 mb 0.00 in0.0 mm 0.00 in0.0 mm 0.00 in0.0 mm
06:35 AM 27.4°F-2.6°C 21.2°F-6.0°C 77% 4.0 mph SE6.4 kmh SE 7.0 mph11.3 kmh 30.77 in1042.0 mb 0.00 in0.0 mm 0.00 in0.0 mm 0.00 in0.0 mm
06:30 AM 27.4°F-2.6°C 21.2°F-6.0°C 77% 4.0 mph SE6.4 kmh SE 7.0 mph11.3 kmh 30.77 in1042.0 mb 0.00 in0.0 mm 0.00 in0.0 mm 0.00 in0.0 mm
06:25 AM 27.6°F-2.4°C 21.0°F-6.1°C 76% 3.0 mph SE4.8 kmh SE 7.0 mph11.3 kmh 30.77 in1042.0 mb 0.00 in0.0 mm 0.00 in0.0 mm 0.00 in0.0 mm
06:20 AM 27.7°F-2.4°C 21.1°F-6.1°C 76% 4.0 mph SSE6.4 kmh SSE 8.0 mph12.9 kmh 30.77 in1042.0 mb 0.00 in0.0 mm 0.00 in0.0 mm 0.00 in0.0 mm
06:15 AM 27.8°F-2.3°C 21.2°F-6.0°C 76% 5.0 mph SE8.0 kmh SE 8.0 mph12.9 kmh 30.77 in1042.0 mb 0.00 in0.0 mm 0.00 in0.0 mm 0.00 in0.0 mm
06:10 AM 27.9°F-2.3°C 21.3°F-5.9°C 76% 4.0 mph SE6.4 kmh SE 8.0 mph12.9 kmh 30.77 in1042.0 mb 0.00 in0.0 mm 0.00 in0.0 mm 0.00 in0.0 mm
06:05 AM 27.9°F-2.3°C 21.3°F-5.9°C 76% 4.0 mph SE6.4 kmh SE 7.0 mph11.3 kmh 30.78 in1042.3 mb 0.00 in0.0 mm 0.00 in0.0 mm 0.00 in0.0 mm
06:00 AM 27.9°F-2.3°C 21.3°F-5.9°C 76% 2.0 mph SE3.2 kmh SE 4.0 mph6.4 kmh 30.78 in1042.3 mb 0.00 in0.0 mm 0.00 in0.0 mm 0.00 in0.0 mm
05:55 AM 28.0°F-2.2°C 21.4°F-5.9°C 76% 3.0 mph SE4.8 kmh SE 4.0 mph6.4 kmh 30.78 in1042.3 mb 0.00 in0.0 mm 0.00 in0.0 mm 0.00 in0.0 mm
05:50 AM 27.9°F-2.3°C 21.3°F-5.9°C 76% 3.0 mph SE4.8 kmh SE 5.0 mph8.0 kmh 30.78 in1042.3 mb 0.00 in0.0 mm 0.00 in0.0 mm 0.00 in0.0 mm
05:45 AM 27.9°F-2.3°C 21.3°F-5.9°C 76% 4.0 mph SE6.4 kmh SE 8.0 mph12.9 kmh 30.77 in1042.0 mb 0.00 in0.0 mm 0.00 in0.0 mm 0.00 in0.0 mm
05:40 AM 27.9°F-2.3°C 21.3°F-5.9°C 76% 3.0 mph SE4.8 kmh SE 5.0 mph8.0 kmh 30.77 in1042.0 mb 0.00 in0.0 mm 0.00 in0.0 mm 0.00 in0.0 mm
05:35 AM 28.0°F-2.2°C 21.4°F-5.9°C 76% 4.0 mph SE6.4 kmh SE 8.0 mph12.9 kmh 30.77 in1042.0 mb 0.00 in0.0 mm 0.00 in0.0 mm 0.00 in0.0 mm
05:30 AM 28.0°F-2.2°C 21.4°F-5.9°C 76% 3.0 mph SE4.8 kmh SE 7.0 mph11.3 kmh 30.77 in1042.0 mb 0.00 in0.0 mm 0.00 in0.0 mm 0.00 in0.0 mm
05:25 AM 27.9°F-2.3°C 21.3°F-5.9°C 76% 3.0 mph ESE4.8 kmh ESE 6.0 mph9.7 kmh 30.76 in1041.7 mb 0.00 in0.0 mm 0.00 in0.0 mm 0.00 in0.0 mm
05:20 AM 28.0°F-2.2°C 21.4°F-5.9°C 76% 3.0 mph SE4.8 kmh SE 5.0 mph8.0 kmh 30.76 in1041.7 mb 0.00 in0.0 mm 0.00 in0.0 mm 0.00 in0.0 mm
05:15 AM 28.1°F-2.2°C 21.5°F-5.8°C 76% 2.0 mph SE3.2 kmh SE 4.0 mph6.4 kmh 30.77 in1042.0 mb 0.00 in0.0 mm 0.00 in0.0 mm 0.00 in0.0 mm
05:10 AM 28.3°F-2.1°C 21.4°F-5.9°C 75% 3.0 mph SE4.8 kmh SE 7.0 mph11.3 kmh 30.76 in1041.7 mb 0.00 in0.0 mm 0.00 in0.0 mm 0.00 in0.0 mm
05:05 AM 28.3°F-2.1°C 21.4°F-5.9°C 75% 3.0 mph SE4.8 kmh SE 7.0 mph11.3 kmh 30.76 in1041.7 mb 0.00 in0.0 mm 0.00 in0.0 mm 0.00 in0.0 mm
05:00 AM 28.3°F-2.1°C 21.4°F-5.9°C 75% 3.0 mph SE4.8 kmh SE 6.0 mph9.7 kmh 30.76 in1041.7 mb 0.00 in0.0 mm 0.00 in0.0 mm 0.00 in0.0 mm
04:55 AM 28.3°F-2.1°C 21.7°F-5.7°C 76% 3.0 mph SE4.8 kmh SE 5.0 mph8.0 kmh 30.77 in1042.0 mb 0.00 in0.0 mm 0.00 in0.0 mm 0.00 in0.0 mm
04:50 AM 28.2°F-2.1°C 21.6°F-5.8°C 76% 3.0 mph SE4.8 kmh SE 4.0 mph6.4 kmh 30.77 in1042.0 mb 0.00 in0.0 mm 0.00 in0.0 mm 0.00 in0.0 mm
04:45 AM 28.1°F-2.2°C 21.5°F-5.8°C 76% 2.0 mph SE3.2 kmh SE 3.0 mph4.8 kmh 30.77 in1042.0 mb 0.00 in0.0 mm 0.00 in0.0 mm 0.00 in0.0 mm
04:40 AM 28.2°F-2.1°C 21.6°F-5.8°C 76% 3.0 mph SE4.8 kmh SE 5.0 mph8.0 kmh 30.76 in1041.7 mb 0.00 in0.0 mm 0.00 in0.0 mm 0.00 in0.0 mm
04:35 AM 28.3°F-2.1°C 21.7°F-5.7°C 76% 3.0 mph SE4.8 kmh SE 5.0 mph8.0 kmh 30.76 in1041.7 mb 0.00 in0.0 mm 0.00 in0.0 mm 0.00 in0.0 mm
04:30 AM 28.2°F-2.1°C 21.6°F-5.8°C 76% 3.0 mph S4.8 kmh S 5.0 mph8.0 kmh 30.76 in1041.7 mb 0.00 in0.0 mm 0.00 in0.0 mm 0.00 in0.0 mm
04:25 AM 28.0°F-2.2°C 21.4°F-5.9°C 76% Calm Calm 1.0 mph1.6 kmh 30.76 in1041.7 mb 0.00 in0.0 mm 0.00 in0.0 mm 0.00 in0.0 mm
04:20 AM 28.1°F-2.2°C 21.5°F-5.8°C 76% 1.0 mph S1.6 kmh S 4.0 mph6.4 kmh 30.77 in1042.0 mb 0.00 in0.0 mm 0.00 in0.0 mm 0.00 in0.0 mm
04:15 AM 28.4°F-2.0°C 21.8°F-5.7°C 76% 2.0 mph S3.2 kmh S 4.0 mph6.4 kmh 30.77 in1042.0 mb 0.00 in0.0 mm 0.00 in0.0 mm 0.00 in0.0 mm
04:10 AM 28.5°F-1.9°C 21.6°F-5.8°C 75% 3.0 mph S4.8 kmh S 5.0 mph8.0 kmh 30.76 in1041.7 mb 0.00 in0.0 mm 0.00 in0.0 mm 0.00 in0.0 mm
04:05 AM 28.4°F-2.0°C 21.8°F-5.7°C 76% 3.0 mph S4.8 kmh S 5.0 mph8.0 kmh 30.76 in1041.7 mb 0.00 in0.0 mm 0.00 in0.0 mm 0.00 in0.0 mm
04:00 AM 28.2°F-2.1°C 21.6°F-5.8°C 76% 2.0 mph S3.2 kmh S 5.0 mph8.0 kmh 30.76 in1041.7 mb 0.00 in0.0 mm 0.00 in0.0 mm 0.00 in0.0 mm
03:55 AM 28.3°F-2.1°C 21.4°F-5.9°C 75% 2.0 mph S3.2 kmh S 5.0 mph8.0 kmh 30.77 in1042.0 mb 0.00 in0.0 mm 0.00 in0.0 mm 0.00 in0.0 mm
03:50 AM 28.5°F-1.9°C 21.6°F-5.8°C 75% 2.0 mph S3.2 kmh S 4.0 mph6.4 kmh 30.77 in1042.0 mb 0.00 in0.0 mm 0.00 in0.0 mm 0.00 in0.0 mm
03:45 AM 28.7°F-1.8°C 21.8°F-5.7°C 75% 2.0 mph SSE3.2 kmh SSE 5.0 mph8.0 kmh 30.76 in1041.7 mb 0.00 in0.0 mm 0.00 in0.0 mm 0.00 in0.0 mm
03:40 AM 28.8°F-1.8°C 21.9°F-5.6°C 75% 4.0 mph SSE6.4 kmh SSE 6.0 mph9.7 kmh 30.77 in1042.0 mb 0.00 in0.0 mm 0.00 in0.0 mm 0.00 in0.0 mm
03:35 AM 28.7°F-1.8°C 21.8°F-5.7°C 75% 4.0 mph SSE6.4 kmh SSE 6.0 mph9.7 kmh 30.76 in1041.7 mb 0.00 in0.0 mm 0.00 in0.0 mm 0.00 in0.0 mm
03:30 AM 28.7°F-1.8°C 21.8°F-5.7°C 75% 3.0 mph SSE4.8 kmh SSE 6.0 mph9.7 kmh 30.77 in1042.0 mb 0.00 in0.0 mm 0.00 in0.0 mm 0.00 in0.0 mm
03:25 AM 28.9°F-1.7°C 22.0°F-5.6°C 75% 3.0 mph SSE4.8 kmh SSE 6.0 mph9.7 kmh 30.76 in1041.7 mb 0.00 in0.0 mm 0.00 in0.0 mm 0.00 in0.0 mm
03:20 AM 29.0°F-1.7°C 22.1°F-5.5°C 75% 5.0 mph SSE8.0 kmh SSE 8.0 mph12.9 kmh 30.75 in1041.3 mb 0.00 in0.0 mm 0.00 in0.0 mm 0.00 in0.0 mm
03:15 AM 29.1°F-1.6°C 22.2°F-5.4°C 75% 5.0 mph SSE8.0 kmh SSE 8.0 mph12.9 kmh 30.75 in1041.3 mb 0.00 in0.0 mm 0.00 in0.0 mm 0.00 in0.0 mm
03:10 AM 29.1°F-1.6°C 22.2°F-5.4°C 75% 6.0 mph SSE9.7 kmh SSE 10.0 mph16.1 kmh 30.75 in1041.3 mb 0.00 in0.0 mm 0.00 in0.0 mm 0.00 in0.0 mm
03:05 AM 29.1°F-1.6°C 22.2°F-5.4°C 75% 5.0 mph SSE8.0 kmh SSE 11.0 mph17.7 kmh 30.76 in1041.7 mb 0.00 in0.0 mm 0.00 in0.0 mm 0.00 in0.0 mm
03:00 AM 29.2°F-1.6°C 22.3°F-5.4°C 75% 4.0 mph SSE6.4 kmh SSE 8.0 mph12.9 kmh 30.76 in1041.7 mb 0.00 in0.0 mm 0.00 in0.0 mm 0.00 in0.0 mm
02:55 AM 29.4°F-1.4°C 22.5°F-5.3°C 75% 5.0 mph SSE8.0 kmh SSE 8.0 mph12.9 kmh 30.76 in1041.7 mb 0.00 in0.0 mm 0.00 in0.0 mm 0.00 in0.0 mm
02:50 AM 29.3°F-1.5°C 22.4°F-5.3°C 75% 5.0 mph SSE8.0 kmh SSE 9.0 mph14.5 kmh 30.76 in1041.7 mb 0.00 in0.0 mm 0.00 in0.0 mm 0.00 in0.0 mm
02:45 AM 29.3°F-1.5°C 22.4°F-5.3°C 75% 6.0 mph SSE9.7 kmh SSE 9.0 mph14.5 kmh 30.76 in1041.7 mb 0.00 in0.0 mm 0.00 in0.0 mm 0.00 in0.0 mm
02:40 AM 29.3°F-1.5°C 22.7°F-5.2°C 76% 5.0 mph SSE8.0 kmh SSE 9.0 mph14.5 kmh 30.76 in1041.7 mb 0.00 in0.0 mm 0.00 in0.0 mm 0.00 in0.0 mm
02:35 AM 29.4°F-1.4°C 22.8°F-5.1°C 76% 6.0 mph SSE9.7 kmh SSE 9.0 mph14.5 kmh 30.76 in1041.7 mb 0.00 in0.0 mm 0.00 in0.0 mm 0.00 in0.0 mm
02:30 AM 29.4°F-1.4°C 22.8°F-5.1°C 76% 5.0 mph SSE8.0 kmh SSE 9.0 mph14.5 kmh 30.76 in1041.7 mb 0.00 in0.0 mm 0.00 in0.0 mm 0.00 in0.0 mm
02:25 AM 29.3°F-1.5°C 23.0°F-5.0°C 77% 5.0 mph SSE8.0 kmh SSE 8.0 mph12.9 kmh 30.76 in1041.7 mb 0.00 in0.0 mm 0.00 in0.0 mm 0.00 in0.0 mm
02:20 AM 29.1°F-1.6°C 22.8°F-5.1°C 77% 4.0 mph SSE6.4 kmh SSE 7.0 mph11.3 kmh 30.76 in1041.7 mb 0.00 in0.0 mm 0.00 in0.0 mm 0.00 in0.0 mm
02:15 AM 29.2°F-1.6°C 22.9°F-5.1°C 77% 4.0 mph SSE6.4 kmh SSE 8.0 mph12.9 kmh 30.76 in1041.7 mb 0.00 in0.0 mm 0.00 in0.0 mm 0.00 in0.0 mm
02:10 AM 29.0°F-1.7°C 22.7°F-5.2°C 77% 4.0 mph S6.4 kmh S 7.0 mph11.3 kmh 30.76 in1041.7 mb 0.00 in0.0 mm 0.00 in0.0 mm 0.00 in0.0 mm
02:05 AM 28.8°F-1.8°C 22.5°F-5.3°C 77% 4.0 mph S6.4 kmh S 7.0 mph11.3 kmh 30.76 in1041.7 mb 0.00 in0.0 mm 0.00 in0.0 mm 0.00 in0.0 mm
02:00 AM 29.0°F-1.7°C 22.7°F-5.2°C 77% 4.0 mph SSE6.4 kmh SSE 8.0 mph12.9 kmh 30.76 in1041.7 mb 0.00 in0.0 mm 0.00 in0.0 mm 0.00 in0.0 mm
01:55 AM 29.0°F-1.7°C 23.0°F-5.0°C 78% 4.0 mph SSE6.4 kmh SSE 7.0 mph11.3 kmh 30.76 in1041.7 mb 0.00 in0.0 mm 0.00 in0.0 mm 0.00 in0.0 mm
01:50 AM 29.0°F-1.7°C 23.0°F-5.0°C 78% 3.0 mph SSE4.8 kmh SSE 3.0 mph4.8 kmh 30.77 in1042.0 mb 0.00 in0.0 mm 0.00 in0.0 mm 0.00 in0.0 mm
01:45 AM 29.0°F-1.7°C 23.0°F-5.0°C 78% 3.0 mph SSE4.8 kmh SSE 5.0 mph8.0 kmh 30.77 in1042.0 mb 0.00 in0.0 mm 0.00 in0.0 mm 0.00 in0.0 mm
01:40 AM 29.0°F-1.7°C 23.0°F-5.0°C 78% 2.0 mph SSE3.2 kmh SSE 5.0 mph8.0 kmh 30.77 in1042.0 mb 0.00 in0.0 mm 0.00 in0.0 mm 0.00 in0.0 mm
01:35 AM 29.1°F-1.6°C 23.1°F-4.9°C 78% 2.0 mph SSE3.2 kmh SSE 7.0 mph11.3 kmh 30.78 in1042.3 mb 0.00 in0.0 mm 0.00 in0.0 mm 0.00 in0.0 mm
01:30 AM 29.3°F-1.5°C 23.0°F-5.0°C 77% 3.0 mph SE4.8 kmh SE 6.0 mph9.7 kmh 30.78 in1042.3 mb 0.00 in0.0 mm 0.00 in0.0 mm 0.00 in0.0 mm
01:25 AM 29.5°F-1.4°C 23.2°F-4.9°C 77% 4.0 mph SE6.4 kmh SE 8.0 mph12.9 kmh 30.78 in1042.3 mb 0.00 in0.0 mm 0.00 in0.0 mm 0.00 in0.0 mm
01:20 AM 30.0°F-1.1°C 23.7°F-4.6°C 77% 6.0 mph SE9.7 kmh SE 10.0 mph16.1 kmh 30.77 in1042.0 mb 0.00 in0.0 mm 0.00 in0.0 mm 0.00 in0.0 mm
01:15 AM 30.3°F-0.9°C 23.7°F-4.6°C 76% 5.0 mph SE8.0 kmh SE 9.0 mph14.5 kmh 30.77 in1042.0 mb 0.00 in0.0 mm 0.00 in0.0 mm 0.00 in0.0 mm
01:10 AM 30.4°F-0.9°C 23.8°F-4.6°C 76% 5.0 mph SE8.0 kmh SE 9.0 mph14.5 kmh 30.78 in1042.3 mb 0.00 in0.0 mm 0.00 in0.0 mm 0.00 in0.0 mm
01:05 AM 30.5°F-0.8°C 24.2°F-4.3°C 77% 4.0 mph SE6.4 kmh SE 7.0 mph11.3 kmh 30.79 in1042.7 mb 0.00 in0.0 mm 0.00 in0.0 mm 0.00 in0.0 mm
01:00 AM 30.5°F-0.8°C 24.2°F-4.3°C 77% 4.0 mph SE6.4 kmh SE 7.0 mph11.3 kmh 30.79 in1042.7 mb 0.00 in0.0 mm 0.00 in0.0 mm 0.00 in0.0 mm
12:55 AM 30.5°F-0.8°C 24.5°F-4.2°C 78% 4.0 mph SE6.4 kmh SE 7.0 mph11.3 kmh 30.79 in1042.7 mb 0.00 in0.0 mm 0.00 in0.0 mm 0.00 in0.0 mm
12:50 AM 30.5°F-0.8°C 24.5°F-4.2°C 78% 4.0 mph SE6.4 kmh SE 7.0 mph11.3 kmh 30.79 in1042.7 mb 0.00 in0.0 mm 0.00 in0.0 mm 0.00 in0.0 mm
12:45 AM 30.6°F-0.8°C 24.6°F-4.1°C 78% 4.0 mph SE6.4 kmh SE 8.0 mph12.9 kmh 30.79 in1042.7 mb 0.00 in0.0 mm 0.00 in0.0 mm 0.00 in0.0 mm
12:40 AM 30.8°F-0.7°C 24.5°F-4.2°C 77% 4.0 mph SE6.4 kmh SE 8.0 mph12.9 kmh 30.79 in1042.7 mb 0.00 in0.0 mm 0.00 in0.0 mm 0.00 in0.0 mm
12:35 AM 31.1°F-0.5°C 24.4°F-4.2°C 76% 4.0 mph SE6.4 kmh SE 7.0 mph11.3 kmh 30.79 in1042.7 mb 0.00 in0.0 mm 0.00 in0.0 mm 0.00 in0.0 mm
12:30 AM 31.5°F-0.3°C 24.8°F-4.0°C 76% 4.0 mph SE6.4 kmh SE 7.0 mph11.3 kmh 30.80 in1043.0 mb 0.00 in0.0 mm 0.00 in0.0 mm 0.00 in0.0 mm
12:25 AM 31.6°F-0.2°C 24.9°F-3.9°C 76% 3.0 mph SE4.8 kmh SE 5.0 mph8.0 kmh 30.80 in1043.0 mb 0.00 in0.0 mm 0.00 in0.0 mm 0.00 in0.0 mm
12:20 AM 31.6°F-0.2°C 24.9°F-3.9°C 76% 2.0 mph SE3.2 kmh SE 5.0 mph8.0 kmh 30.80 in1043.0 mb 0.00 in0.0 mm 0.00 in0.0 mm 0.00 in0.0 mm
12:15 AM 31.6°F-0.2°C 25.2°F-3.8°C 77% 2.0 mph SE3.2 kmh SE 4.0 mph6.4 kmh 30.80 in1043.0 mb 0.00 in0.0 mm 0.00 in0.0 mm 0.00 in0.0 mm
12:10 AM 31.5°F-0.3°C 25.1°F-3.8°C 77% 2.0 mph SE3.2 kmh SE 5.0 mph8.0 kmh 30.80 in1043.0 mb 0.00 in0.0 mm 0.00 in0.0 mm 0.00 in0.0 mm
12:05 AM 31.4°F-0.3°C 25.0°F-3.9°C 77% 3.0 mph SE4.8 kmh SE 4.0 mph6.4 kmh 30.80 in1043.0 mb 0.00 in0.0 mm 0.00 in0.0 mm 0.00 in0.0 mm
12:00 AM 31.3°F-0.4°C 25.3°F-3.7°C 78% 3.0 mph SE4.8 kmh SE 4.0 mph6.4 kmh 30.79 in1042.7 mb 0.00 in0.0 mm 0.00 in0.0 mm 0.02 in0.5 mm